sensor_id;sensor_type;location;lat;lon;timestamp;temperature;humidity
40868;DHT22;26586;50.708;22.412;2022-07-06T05:45:19;23.80;61.50
40868;DHT22;26586;50.708;22.412;2022-07-06T05:47:45;23.80;60.90
40868;DHT22;26586;50.708;22.412;2022-07-06T05:50:30;23.80;61.00
40868;DHT22;26586;50.708;22.412;2022-07-06T05:53:02;23.80;61.50
40868;DHT22;26586;50.708;22.412;2022-07-06T05:55:28;23.70;62.60
40868;DHT22;26586;50.708;22.412;2022-07-06T05:57:55;23.70;62.20
40868;DHT22;26586;50.708;22.412;2022-07-06T06:00:24;23.70;62.40
40868;DHT22;26586;50.708;22.412;2022-07-06T06:02:51;23.70;62.40
40868;DHT22;26586;50.708;22.412;2022-07-06T06:05:18;23.70;61.60
40868;DHT22;26586;50.708;22.412;2022-07-06T06:07:45;23.70;61.60
40868;DHT22;26586;50.708;22.412;2022-07-06T06:10:16;23.70;61.30
40868;DHT22;26586;50.708;22.412;2022-07-06T06:12:43;23.70;62.10
40868;DHT22;26586;50.708;22.412;2022-07-06T06:15:10;23.60;62.20
40868;DHT22;26586;50.708;22.412;2022-07-06T06:17:37;23.70;61.80
40868;DHT22;26586;50.708;22.412;2022-07-06T06:20:05;23.70;61.30
40868;DHT22;26586;50.708;22.412;2022-07-06T06:25:17;23.60;62.50
40868;DHT22;26586;50.708;22.412;2022-07-06T06:27:44;23.60;62.70
40868;DHT22;26586;50.708;22.412;2022-07-06T06:30:11;23.60;62.60
40868;DHT22;26586;50.708;22.412;2022-07-06T06:32:38;23.60;61.50
40868;DHT22;26586;50.708;22.412;2022-07-06T06:35:05;23.60;62.70
40868;DHT22;26586;50.708;22.412;2022-07-06T06:37:33;23.60;62.40
40868;DHT22;26586;50.708;22.412;2022-07-06T06:40:00;23.60;62.80
40868;DHT22;26586;50.708;22.412;2022-07-06T06:42:27;23.60;62.30
40868;DHT22;26586;50.708;22.412;2022-07-06T06:44:53;23.60;62.80
40868;DHT22;26586;50.708;22.412;2022-07-06T06:47:19;23.60;62.90
40868;DHT22;26586;50.708;22.412;2022-07-06T06:49:46;23.60;62.90
40868;DHT22;26586;50.708;22.412;2022-07-06T06:52:13;23.60;62.30
40868;DHT22;26586;50.708;22.412;2022-07-06T06:54:39;23.60;62.40
40868;DHT22;26586;50.708;22.412;2022-07-06T06:57:05;23.60;62.80
40868;DHT22;26586;50.708;22.412;2022-07-06T06:59:31;23.60;62.40
40868;DHT22;26586;50.708;22.412;2022-07-06T07:01:57;23.60;61.80
40868;DHT22;26586;50.708;22.412;2022-07-06T07:04:23;23.60;61.80
40868;DHT22;26586;50.708;22.412;2022-07-06T07:06:50;23.70;61.80
40868;DHT22;26586;50.708;22.412;2022-07-06T07:09:16;23.70;61.30
40868;DHT22;26586;50.708;22.412;2022-07-06T07:11:42;23.60;62.10
40868;DHT22;26586;50.708;22.412;2022-07-06T07:14:08;23.60;62.00
40868;DHT22;26586;50.708;22.412;2022-07-06T07:16:34;23.60;62.00
40868;DHT22;26586;50.708;22.412;2022-07-06T07:19:00;23.60;61.20
40868;DHT22;26586;50.708;22.412;2022-07-06T07:21:27;23.60;62.20
40868;DHT22;26586;50.708;22.412;2022-07-06T07:23:53;23.60;62.10
40868;DHT22;26586;50.708;22.412;2022-07-06T07:26:19;23.60;62.00
40868;DHT22;26586;50.708;22.412;2022-07-06T07:28:45;23.70;61.60
40868;DHT22;26586;50.708;22.412;2022-07-06T07:31:12;23.70;61.90
40868;DHT22;26586;50.708;22.412;2022-07-06T07:33:38;23.70;61.80
40868;DHT22;26586;50.708;22.412;2022-07-06T07:36:05;23.70;62.00
40868;DHT22;26586;50.708;22.412;2022-07-06T07:38:31;23.70;61.80
40868;DHT22;26586;50.708;22.412;2022-07-06T07:40:57;23.70;62.30
40868;DHT22;26586;50.708;22.412;2022-07-06T07:43:24;23.70;62.10
40868;DHT22;26586;50.708;22.412;2022-07-06T07:45:50;23.70;62.10
40868;DHT22;26586;50.708;22.412;2022-07-06T07:48:16;23.70;62.00
40868;DHT22;26586;50.708;22.412;2022-07-06T07:50:42;23.70;62.20
40868;DHT22;26586;50.708;22.412;2022-07-06T07:53:08;23.70;62.30
40868;DHT22;26586;50.708;22.412;2022-07-06T07:55:35;23.70;62.00
40868;DHT22;26586;50.708;22.412;2022-07-06T07:58:01;23.70;62.00
40868;DHT22;26586;50.708;22.412;2022-07-06T08:00:27;23.70;62.20
40868;DHT22;26586;50.708;22.412;2022-07-06T08:02:54;23.70;62.30
40868;DHT22;26586;50.708;22.412;2022-07-06T08:05:21;23.80;62.30
40868;DHT22;26586;50.708;22.412;2022-07-06T08:07:47;23.80;62.00
40868;DHT22;26586;50.708;22.412;2022-07-06T08:10:13;23.80;62.00
40868;DHT22;26586;50.708;22.412;2022-07-06T08:12:39;23.80;61.80
40868;DHT22;26586;50.708;22.412;2022-07-06T08:15:07;23.80;61.60
40868;DHT22;26586;50.708;22.412;2022-07-06T08:17:33;23.90;61.60
40868;DHT22;26586;50.708;22.412;2022-07-06T08:19:59;23.90;61.50
40868;DHT22;26586;50.708;22.412;2022-07-06T08:22:25;24.00;61.30
40868;DHT22;26586;50.708;22.412;2022-07-06T08:24:53;24.00;61.30
40868;DHT22;26586;50.708;22.412;2022-07-06T08:27:19;24.00;60.90
40868;DHT22;26586;50.708;22.412;2022-07-06T08:29:45;24.00;60.40
40868;DHT22;26586;50.708;22.412;2022-07-06T08:32:11;24.10;60.50
40868;DHT22;26586;50.708;22.412;2022-07-06T08:34:37;24.10;60.30
40868;DHT22;26586;50.708;22.412;2022-07-06T08:37:03;24.20;59.80
40868;DHT22;26586;50.708;22.412;2022-07-06T08:39:29;24.20;60.10
40868;DHT22;26586;50.708;22.412;2022-07-06T08:41:56;24.20;59.20
40868;DHT22;26586;50.708;22.412;2022-07-06T08:44:24;24.30;59.70
40868;DHT22;26586;50.708;22.412;2022-07-06T08:46:54;24.30;59.80
40868;DHT22;26586;50.708;22.412;2022-07-06T08:49:23;24.30;59.80
40868;DHT22;26586;50.708;22.412;2022-07-06T08:51:50;24.40;60.00
40868;DHT22;26586;50.708;22.412;2022-07-06T08:54:17;24.30;59.90
40868;DHT22;26586;50.708;22.412;2022-07-06T08:56:45;24.40;59.70
40868;DHT22;26586;50.708;22.412;2022-07-06T08:59:12;24.40;59.60
40868;DHT22;26586;50.708;22.412;2022-07-06T09:01:38;24.50;59.60
40868;DHT22;26586;50.708;22.412;2022-07-06T09:04:05;24.50;59.50
40868;DHT22;26586;50.708;22.412;2022-07-06T09:06:35;24.50;59.10
40868;DHT22;26586;50.708;22.412;2022-07-06T09:09:05;24.50;58.70
40868;DHT22;26586;50.708;22.412;2022-07-06T09:11:32;24.50;58.70
40868;DHT22;26586;50.708;22.412;2022-07-06T09:13:58;24.60;58.70
40868;DHT22;26586;50.708;22.412;2022-07-06T09:16:26;24.60;58.60
40868;DHT22;26586;50.708;22.412;2022-07-06T09:18:54;24.70;58.10
40868;DHT22;26586;50.708;22.412;2022-07-06T09:21:29;24.70;58.30
40868;DHT22;26586;50.708;22.412;2022-07-06T09:24:01;24.70;58.40
40868;DHT22;26586;50.708;22.412;2022-07-06T09:26:30;24.80;58.10
40868;DHT22;26586;50.708;22.412;2022-07-06T09:28:57;24.70;58.10
40868;DHT22;26586;50.708;22.412;2022-07-06T09:31:23;24.80;58.20
40868;DHT22;26586;50.708;22.412;2022-07-06T09:34:00;24.80;58.00
40868;DHT22;26586;50.708;22.412;2022-07-06T09:36:46;24.80;58.10
40868;DHT22;26586;50.708;22.412;2022-07-06T09:39:27;24.80;57.30
40868;DHT22;26586;50.708;22.412;2022-07-06T09:41:57;24.80;57.80
40868;DHT22;26586;50.708;22.412;2022-07-06T09:44:28;24.80;57.30
40868;DHT22;26586;50.708;22.412;2022-07-06T09:46:56;24.90;57.10
40868;DHT22;26586;50.708;22.412;2022-07-06T09:49:23;24.90;57.60
40868;DHT22;26586;50.708;22.412;2022-07-06T09:51:53;24.90;57.00
40868;DHT22;26586;50.708;22.412;2022-07-06T09:54:20;24.90;56.90
40868;DHT22;26586;50.708;22.412;2022-07-06T09:56:48;24.90;56.60
40868;DHT22;26586;50.708;22.412;2022-07-06T09:59:18;24.90;57.20
40868;DHT22;26586;50.708;22.412;2022-07-06T10:01:45;25.00;57.10
40868;DHT22;26586;50.708;22.412;2022-07-06T10:04:14;25.00;56.90
40868;DHT22;26586;50.708;22.412;2022-07-06T10:06:41;25.00;56.50
40868;DHT22;26586;50.708;22.412;2022-07-06T10:09:09;25.00;56.80
40868;DHT22;26586;50.708;22.412;2022-07-06T10:11:50;25.00;56.80
40868;DHT22;26586;50.708;22.412;2022-07-06T10:14:25;25.00;56.70
40868;DHT22;26586;50.708;22.412;2022-07-06T10:16:52;25.00;56.70
40868;DHT22;26586;50.708;22.412;2022-07-06T10:19:20;25.10;56.70
40868;DHT22;26586;50.708;22.412;2022-07-06T10:21:47;25.10;56.80
40868;DHT22;26586;50.708;22.412;2022-07-06T10:24:18;25.10;56.40
40868;DHT22;26586;50.708;22.412;2022-07-06T10:26:50;25.10;56.50
40868;DHT22;26586;50.708;22.412;2022-07-06T10:29:18;25.10;57.00
40868;DHT22;26586;50.708;22.412;2022-07-06T10:31:45;25.10;56.20
40868;DHT22;26586;50.708;22.412;2022-07-06T10:34:14;25.20;55.70
40868;DHT22;26586;50.708;22.412;2022-07-06T10:36:42;25.20;55.90
40868;DHT22;26586;50.708;22.412;2022-07-06T10:39:10;25.30;55.70
40868;DHT22;26586;50.708;22.412;2022-07-06T10:41:55;25.30;55.80
40868;DHT22;26586;50.708;22.412;2022-07-06T10:44:25;25.30;55.90
40868;DHT22;26586;50.708;22.412;2022-07-06T10:46:52;25.30;55.60
40868;DHT22;26586;50.708;22.412;2022-07-06T10:49:19;25.30;55.60
40868;DHT22;26586;50.708;22.412;2022-07-06T10:51:49;25.30;55.60
40868;DHT22;26586;50.708;22.412;2022-07-06T10:54:18;25.30;55.50
40868;DHT22;26586;50.708;22.412;2022-07-06T10:56:50;25.40;55.60
40868;DHT22;26586;50.708;22.412;2022-07-06T10:59:23;25.40;55.40
40868;DHT22;26586;50.708;22.412;2022-07-06T11:02:14;25.40;55.20
40868;DHT22;26586;50.708;22.412;2022-07-06T11:04:46;25.40;55.10
40868;DHT22;26586;50.708;22.412;2022-07-06T11:07:18;25.50;55.20
40868;DHT22;26586;50.708;22.412;2022-07-06T11:09:58;25.50;55.10
40868;DHT22;26586;50.708;22.412;2022-07-06T11:12:26;25.50;55.10
40868;DHT22;26586;50.708;22.412;2022-07-06T11:14:53;25.50;55.00
40868;DHT22;26586;50.708;22.412;2022-07-06T11:17:19;25.50;55.00
40868;DHT22;26586;50.708;22.412;2022-07-06T11:20:09;25.60;55.10
40868;DHT22;26586;50.708;22.412;2022-07-06T11:22:37;25.60;55.00
40868;DHT22;26586;50.708;22.412;2022-07-06T11:25:05;25.60;54.90
40868;DHT22;26586;50.708;22.412;2022-07-06T11:27:33;25.60;54.80
40868;DHT22;26586;50.708;22.412;2022-07-06T11:30:00;25.60;54.80
40868;DHT22;26586;50.708;22.412;2022-07-06T11:32:27;25.70;54.80
40868;DHT22;26586;50.708;22.412;2022-07-06T11:34:53;25.70;54.70
40868;DHT22;26586;50.708;22.412;2022-07-06T11:37:20;25.70;54.40
40868;DHT22;26586;50.708;22.412;2022-07-06T11:39:47;25.70;54.60
40868;DHT22;26586;50.708;22.412;2022-07-06T11:42:16;25.80;54.60
40868;DHT22;26586;50.708;22.412;2022-07-06T11:44:46;25.80;54.60
40868;DHT22;26586;50.708;22.412;2022-07-06T11:47:13;25.80;54.50
40868;DHT22;26586;50.708;22.412;2022-07-06T11:49:40;25.80;54.50
40868;DHT22;26586;50.708;22.412;2022-07-06T11:52:11;25.80;54.40
40868;DHT22;26586;50.708;22.412;2022-07-06T11:54:41;25.80;54.30
40868;DHT22;26586;50.708;22.412;2022-07-06T11:57:10;25.80;54.30
40868;DHT22;26586;50.708;22.412;2022-07-06T11:59:39;25.90;54.30
40868;DHT22;26586;50.708;22.412;2022-07-06T12:02:07;25.90;54.20
40868;DHT22;26586;50.708;22.412;2022-07-06T12:04:37;25.90;54.20
40868;DHT22;26586;50.708;22.412;2022-07-06T12:07:06;26.00;54.20
40868;DHT22;26586;50.708;22.412;2022-07-06T12:09:35;26.00;54.10
40868;DHT22;26586;50.708;22.412;2022-07-06T12:12:02;26.00;53.80
40868;DHT22;26586;50.708;22.412;2022-07-06T12:14:30;26.00;53.80
40868;DHT22;26586;50.708;22.412;2022-07-06T12:17:09;26.00;53.80
40868;DHT22;26586;50.708;22.412;2022-07-06T12:19:36;26.00;53.70
40868;DHT22;26586;50.708;22.412;2022-07-06T12:22:03;26.00;53.50
40868;DHT22;26586;50.708;22.412;2022-07-06T12:24:31;26.00;53.50
40868;DHT22;26586;50.708;22.412;2022-07-06T12:27:09;26.00;53.50
40868;DHT22;26586;50.708;22.412;2022-07-06T12:29:36;26.00;53.50
40868;DHT22;26586;50.708;22.412;2022-07-06T12:32:03;26.10;53.40
40868;DHT22;26586;50.708;22.412;2022-07-06T12:34:31;26.10;53.80
40868;DHT22;26586;50.708;22.412;2022-07-06T12:37:06;26.10;53.20
40868;DHT22;26586;50.708;22.412;2022-07-06T12:39:41;26.10;52.60
40868;DHT22;26586;50.708;22.412;2022-07-06T12:42:08;26.10;52.80
40868;DHT22;26586;50.708;22.412;2022-07-06T12:44:48;26.20;52.80
40868;DHT22;26586;50.708;22.412;2022-07-06T12:47:21;26.20;52.70
40868;DHT22;26586;50.708;22.412;2022-07-06T12:50:07;26.20;52.70
40868;DHT22;26586;50.708;22.412;2022-07-06T12:52:34;26.20;52.50
40868;DHT22;26586;50.708;22.412;2022-07-06T12:55:03;26.20;52.30
40868;DHT22;26586;50.708;22.412;2022-07-06T12:57:43;26.20;52.20
40868;DHT22;26586;50.708;22.412;2022-07-06T13:00:10;26.30;52.20
40868;DHT22;26586;50.708;22.412;2022-07-06T13:02:36;26.30;52.00
40868;DHT22;26586;50.708;22.412;2022-07-06T13:05:10;26.30;52.10
40868;DHT22;26586;50.708;22.412;2022-07-06T13:07:43;26.30;51.90
40868;DHT22;26586;50.708;22.412;2022-07-06T13:10:11;26.30;52.00
40868;DHT22;26586;50.708;22.412;2022-07-06T13:12:39;26.30;51.70
40868;DHT22;26586;50.708;22.412;2022-07-06T13:15:06;26.30;51.60
40868;DHT22;26586;50.708;22.412;2022-07-06T13:17:33;26.30;51.60
40868;DHT22;26586;50.708;22.412;2022-07-06T13:19:59;26.30;51.20
40868;DHT22;26586;50.708;22.412;2022-07-06T13:22:26;26.30;51.20
40868;DHT22;26586;50.708;22.412;2022-07-06T13:24:52;26.40;51.10
40868;DHT22;26586;50.708;22.412;2022-07-06T13:27:18;26.40;51.10
40868;DHT22;26586;50.708;22.412;2022-07-06T13:29:45;26.40;51.20
40868;DHT22;26586;50.708;22.412;2022-07-06T13:32:11;26.40;50.70
40868;DHT22;26586;50.708;22.412;2022-07-06T13:34:37;26.40;50.70
40868;DHT22;26586;50.708;22.412;2022-07-06T13:37:04;26.40;50.20
40868;DHT22;26586;50.708;22.412;2022-07-06T13:39:31;26.40;50.70
40868;DHT22;26586;50.708;22.412;2022-07-06T13:41:58;26.40;50.40
40868;DHT22;26586;50.708;22.412;2022-07-06T13:44:24;26.40;50.40
40868;DHT22;26586;50.708;22.412;2022-07-06T13:46:50;26.40;50.40
40868;DHT22;26586;50.708;22.412;2022-07-06T13:49:17;26.40;50.40
40868;DHT22;26586;50.708;22.412;2022-07-06T13:51:43;26.40;50.30
40868;DHT22;26586;50.708;22.412;2022-07-06T13:54:10;26.40;50.10
40868;DHT22;26586;50.708;22.412;2022-07-06T13:56:40;26.40;50.20
40868;DHT22;26586;50.708;22.412;2022-07-06T13:59:06;26.50;50.40
40868;DHT22;26586;50.708;22.412;2022-07-06T14:01:33;26.50;50.20
40868;DHT22;26586;50.708;22.412;2022-07-06T14:03:59;26.40;50.10
40868;DHT22;26586;50.708;22.412;2022-07-06T14:06:25;26.50;50.20
40868;DHT22;26586;50.708;22.412;2022-07-06T14:08:55;26.50;50.20
40868;DHT22;26586;50.708;22.412;2022-07-06T14:11:21;26.50;50.00
40868;DHT22;26586;50.708;22.412;2022-07-06T14:13:47;26.50;49.90
40868;DHT22;26586;50.708;22.412;2022-07-06T14:16:13;26.50;50.00
40868;DHT22;26586;50.708;22.412;2022-07-06T14:18:40;26.50;49.90
40868;DHT22;26586;50.708;22.412;2022-07-06T14:21:06;26.50;49.60
40868;DHT22;26586;50.708;22.412;2022-07-06T14:23:32;26.50;49.70
40868;DHT22;26586;50.708;22.412;2022-07-06T14:25:59;26.50;49.20
40868;DHT22;26586;50.708;22.412;2022-07-06T14:28:25;26.50;49.40
40868;DHT22;26586;50.708;22.412;2022-07-06T14:30:51;26.50;49.50
40868;DHT22;26586;50.708;22.412;2022-07-06T14:33:18;26.50;49.60
40868;DHT22;26586;50.708;22.412;2022-07-06T14:35:47;26.50;49.80
40868;DHT22;26586;50.708;22.412;2022-07-06T14:38:14;26.50;50.00
40868;DHT22;26586;50.708;22.412;2022-07-06T14:40:41;26.50;50.00
40868;DHT22;26586;50.708;22.412;2022-07-06T14:43:07;26.50;50.10
40868;DHT22;26586;50.708;22.412;2022-07-06T14:45:33;26.50;50.10
40868;DHT22;26586;50.708;22.412;2022-07-06T14:48:00;26.50;50.00
40868;DHT22;26586;50.708;22.412;2022-07-06T14:50:26;26.60;50.20
40868;DHT22;26586;50.708;22.412;2022-07-06T14:52:57;26.50;50.00
40868;DHT22;26586;50.708;22.412;2022-07-06T14:55:28;26.60;50.10
40868;DHT22;26586;50.708;22.412;2022-07-06T14:57:54;26.60;50.00
40868;DHT22;26586;50.708;22.412;2022-07-06T15:00:23;26.50;49.90
40868;DHT22;26586;50.708;22.412;2022-07-06T15:02:49;26.50;49.90
40868;DHT22;26586;50.708;22.412;2022-07-06T15:05:15;26.60;50.00
40868;DHT22;26586;50.708;22.412;2022-07-06T15:07:41;26.60;50.00
40868;DHT22;26586;50.708;22.412;2022-07-06T15:10:08;26.50;50.00
40868;DHT22;26586;50.708;22.412;2022-07-06T15:12:35;26.50;49.90
40868;DHT22;26586;50.708;22.412;2022-07-06T15:15:02;26.50;49.70
40868;DHT22;26586;50.708;22.412;2022-07-06T15:17:28;26.50;49.90
40868;DHT22;26586;50.708;22.412;2022-07-06T15:19:55;26.50;50.10
40868;DHT22;26586;50.708;22.412;2022-07-06T15:22:21;26.50;49.90
40868;DHT22;26586;50.708;22.412;2022-07-06T15:24:47;26.50;50.20
40868;DHT22;26586;50.708;22.412;2022-07-06T15:27:14;26.50;49.90
40868;DHT22;26586;50.708;22.412;2022-07-06T15:29:40;26.50;50.10
40868;DHT22;26586;50.708;22.412;2022-07-06T15:32:06;26.50;49.90
40868;DHT22;26586;50.708;22.412;2022-07-06T15:34:32;26.50;50.10
40868;DHT22;26586;50.708;22.412;2022-07-06T15:36:59;26.50;50.10
40868;DHT22;26586;50.708;22.412;2022-07-06T15:39:26;26.50;50.00
40868;DHT22;26586;50.708;22.412;2022-07-06T15:41:52;26.50;50.20
40868;DHT22;26586;50.708;22.412;2022-07-06T15:44:18;26.50;50.40
40868;DHT22;26586;50.708;22.412;2022-07-06T15:46:44;26.50;50.50
40868;DHT22;26586;50.708;22.412;2022-07-06T15:49:14;26.50;50.60
40868;DHT22;26586;50.708;22.412;2022-07-06T15:51:40;26.40;50.60
40868;DHT22;26586;50.708;22.412;2022-07-06T15:54:07;26.40;50.60
40868;DHT22;26586;50.708;22.412;2022-07-06T15:56:33;26.40;50.60
40868;DHT22;26586;50.708;22.412;2022-07-06T15:58:59;26.40;50.50
40868;DHT22;26586;50.708;22.412;2022-07-06T16:01:25;26.40;50.40
40868;DHT22;26586;50.708;22.412;2022-07-06T16:03:51;26.40;50.40
40868;DHT22;26586;50.708;22.412;2022-07-06T16:06:17;26.40;50.40
40868;DHT22;26586;50.708;22.412;2022-07-06T16:08:44;26.40;50.40
40868;DHT22;26586;50.708;22.412;2022-07-06T16:11:11;26.40;50.40
40868;DHT22;26586;50.708;22.412;2022-07-06T16:13:37;26.40;50.20
40868;DHT22;26586;50.708;22.412;2022-07-06T16:16:07;26.40;50.10
40868;DHT22;26586;50.708;22.412;2022-07-06T16:18:33;26.40;50.10
40868;DHT22;26586;50.708;22.412;2022-07-06T16:20:59;26.40;50.10
40868;DHT22;26586;50.708;22.412;2022-07-06T16:23:25;26.40;50.20
40868;DHT22;26586;50.708;22.412;2022-07-06T16:25:52;26.40;50.10
40868;DHT22;26586;50.708;22.412;2022-07-06T16:28:18;26.40;50.20
40868;DHT22;26586;50.708;22.412;2022-07-06T16:30:44;26.40;50.30
40868;DHT22;26586;50.708;22.412;2022-07-06T16:33:10;26.40;50.40
40868;DHT22;26586;50.708;22.412;2022-07-06T16:35:38;26.40;50.60
40868;DHT22;26586;50.708;22.412;2022-07-06T16:38:08;26.40;50.60
40868;DHT22;26586;50.708;22.412;2022-07-06T16:40:34;26.40;50.60
40868;DHT22;26586;50.708;22.412;2022-07-06T16:43:00;26.40;50.60
40868;DHT22;26586;50.708;22.412;2022-07-06T16:45:27;26.40;50.60
40868;DHT22;26586;50.708;22.412;2022-07-06T16:47:54;26.40;50.30
40868;DHT22;26586;50.708;22.412;2022-07-06T16:50:20;26.40;50.60
40868;DHT22;26586;50.708;22.412;2022-07-06T16:52:46;26.40;50.60
40868;DHT22;26586;50.708;22.412;2022-07-06T16:55:12;26.40;49.30
40868;DHT22;26586;50.708;22.412;2022-07-06T16:57:39;26.40;49.70
40868;DHT22;26586;50.708;22.412;2022-07-06T17:00:07;26.40;48.50
40868;DHT22;26586;50.708;22.412;2022-07-06T17:02:33;26.40;48.10
40868;DHT22;26586;50.708;22.412;2022-07-06T17:04:59;26.30;48.40
40868;DHT22;26586;50.708;22.412;2022-07-06T17:07:25;26.30;48.40
40868;DHT22;26586;50.708;22.412;2022-07-06T17:09:51;26.30;48.70
40868;DHT22;26586;50.708;22.412;2022-07-06T17:12:20;26.30;49.20
40868;DHT22;26586;50.708;22.412;2022-07-06T17:14:45;26.30;49.20
40868;DHT22;26586;50.708;22.412;2022-07-06T17:17:12;26.30;49.10
40868;DHT22;26586;50.708;22.412;2022-07-06T17:19:38;26.30;49.20
40868;DHT22;26586;50.708;22.412;2022-07-06T17:22:04;26.30;48.90
40868;DHT22;26586;50.708;22.412;2022-07-06T17:24:30;26.30;49.20
40868;DHT22;26586;50.708;22.412;2022-07-06T17:26:56;26.30;49.50
40868;DHT22;26586;50.708;22.412;2022-07-06T17:29:22;26.20;49.60
40868;DHT22;26586;50.708;22.412;2022-07-06T17:31:50;26.20;49.60
40868;DHT22;26586;50.708;22.412;2022-07-06T17:34:17;26.20;49.70
40868;DHT22;26586;50.708;22.412;2022-07-06T17:36:43;26.20;49.60
40868;DHT22;26586;50.708;22.412;2022-07-06T17:39:09;26.20;49.70
40868;DHT22;26586;50.708;22.412;2022-07-06T17:41:36;26.20;49.80
40868;DHT22;26586;50.708;22.412;2022-07-06T17:44:02;26.20;49.70
40868;DHT22;26586;50.708;22.412;2022-07-06T17:46:28;26.20;49.80
40868;DHT22;26586;50.708;22.412;2022-07-06T17:48:55;26.10;49.70
40868;DHT22;26586;50.708;22.412;2022-07-06T17:51:21;26.10;49.80
40868;DHT22;26586;50.708;22.412;2022-07-06T17:53:47;26.10;49.70
40868;DHT22;26586;50.708;22.412;2022-07-06T17:56:13;26.10;49.40
40868;DHT22;26586;50.708;22.412;2022-07-06T17:58:41;26.10;49.10
40868;DHT22;26586;50.708;22.412;2022-07-06T18:01:07;26.10;48.90
40868;DHT22;26586;50.708;22.412;2022-07-06T18:03:33;26.10;49.10
40868;DHT22;26586;50.708;22.412;2022-07-06T18:05:59;26.10;49.10
40868;DHT22;26586;50.708;22.412;2022-07-06T18:08:27;26.00;48.80
40868;DHT22;26586;50.708;22.412;2022-07-06T18:10:53;26.00;48.60
40868;DHT22;26586;50.708;22.412;2022-07-06T18:13:19;26.00;48.30
40868;DHT22;26586;50.708;22.412;2022-07-06T18:15:45;26.00;48.10
40868;DHT22;26586;50.708;22.412;2022-07-06T18:18:12;26.00;47.90
40868;DHT22;26586;50.708;22.412;2022-07-06T18:20:38;26.00;47.70
40868;DHT22;26586;50.708;22.412;2022-07-06T18:23:04;26.00;47.70
40868;DHT22;26586;50.708;22.412;2022-07-06T18:25:30;26.00;47.60
40868;DHT22;26586;50.708;22.412;2022-07-06T18:27:57;26.00;47.50
40868;DHT22;26586;50.708;22.412;2022-07-06T18:30:23;26.00;47.50
40868;DHT22;26586;50.708;22.412;2022-07-06T18:32:49;26.00;47.30
40868;DHT22;26586;50.708;22.412;2022-07-06T18:35:18;26.00;47.50
40868;DHT22;26586;50.708;22.412;2022-07-06T18:37:44;25.90;47.20
40868;DHT22;26586;50.708;22.412;2022-07-06T18:40:11;25.90;47.20
40868;DHT22;26586;50.708;22.412;2022-07-06T18:42:37;25.90;47.30
40868;DHT22;26586;50.708;22.412;2022-07-06T18:45:05;25.90;47.30
40868;DHT22;26586;50.708;22.412;2022-07-06T18:47:31;25.90;47.50
40868;DHT22;26586;50.708;22.412;2022-07-06T18:49:57;25.80;47.30
40868;DHT22;26586;50.708;22.412;2022-07-06T18:52:24;25.80;47.30
40868;DHT22;26586;50.708;22.412;2022-07-06T18:54:50;25.80;47.20
40868;DHT22;26586;50.708;22.412;2022-07-06T18:57:16;25.80;47.10
40868;DHT22;26586;50.708;22.412;2022-07-06T18:59:42;25.80;47.10
40868;DHT22;26586;50.708;22.412;2022-07-06T19:02:08;25.80;47.20
40868;DHT22;26586;50.708;22.412;2022-07-06T19:04:35;25.80;47.10
40868;DHT22;26586;50.708;22.412;2022-07-06T19:07:01;25.80;47.10
40868;DHT22;26586;50.708;22.412;2022-07-06T19:09:27;25.80;47.10
40868;DHT22;26586;50.708;22.412;2022-07-06T19:11:54;25.80;47.10
40868;DHT22;26586;50.708;22.412;2022-07-06T19:14:20;25.70;47.00
40868;DHT22;26586;50.708;22.412;2022-07-06T19:16:46;25.70;47.00
40868;DHT22;26586;50.708;22.412;2022-07-06T19:19:12;25.70;47.30
40868;DHT22;26586;50.708;22.412;2022-07-06T19:21:38;25.70;47.30
40868;DHT22;26586;50.708;22.412;2022-07-06T19:24:05;25.70;47.10
40868;DHT22;26586;50.708;22.412;2022-07-06T19:26:31;25.70;47.20
40868;DHT22;26586;50.708;22.412;2022-07-06T19:28:57;25.70;47.80
40868;DHT22;26586;50.708;22.412;2022-07-06T19:31:23;25.60;47.50
40868;DHT22;26586;50.708;22.412;2022-07-06T19:33:49;25.60;47.40
40868;DHT22;26586;50.708;22.412;2022-07-06T19:36:15;25.60;47.40
40868;DHT22;26586;50.708;22.412;2022-07-06T19:38:42;25.60;47.40
40868;DHT22;26586;50.708;22.412;2022-07-06T19:41:08;25.60;47.50
40868;DHT22;26586;50.708;22.412;2022-07-06T19:43:34;25.50;47.50
40868;DHT22;26586;50.708;22.412;2022-07-06T19:46:00;25.60;48.10
40868;DHT22;26586;50.708;22.412;2022-07-06T19:48:26;25.50;48.80
40868;DHT22;26586;50.708;22.412;2022-07-06T19:50:52;25.50;48.50
40868;DHT22;26586;50.708;22.412;2022-07-06T19:53:19;25.50;49.30
40868;DHT22;26586;50.708;22.412;2022-07-06T19:55:45;25.50;49.10
40868;DHT22;26586;50.708;22.412;2022-07-06T19:58:11;25.50;49.60
40868;DHT22;26586;50.708;22.412;2022-07-06T20:00:37;25.50;50.20
40868;DHT22;26586;50.708;22.412;2022-07-06T20:03:03;25.50;49.80
40868;DHT22;26586;50.708;22.412;2022-07-06T20:05:30;25.40;49.20
40868;DHT22;26586;50.708;22.412;2022-07-06T20:07:56;25.40;50.00
40868;DHT22;26586;50.708;22.412;2022-07-06T20:10:22;25.40;50.20
40868;DHT22;26586;50.708;22.412;2022-07-06T20:12:48;25.30;50.10
40868;DHT22;26586;50.708;22.412;2022-07-06T20:15:15;25.30;50.60
40868;DHT22;26586;50.708;22.412;2022-07-06T20:17:41;25.30;49.90
40868;DHT22;26586;50.708;22.412;2022-07-06T20:20:07;25.30;50.00
40868;DHT22;26586;50.708;22.412;2022-07-06T20:22:34;25.30;49.40
40868;DHT22;26586;50.708;22.412;2022-07-06T20:25:00;25.30;49.30
40868;DHT22;26586;50.708;22.412;2022-07-06T20:27:26;25.30;49.30
40868;DHT22;26586;50.708;22.412;2022-07-06T20:29:52;25.30;50.10
40868;DHT22;26586;50.708;22.412;2022-07-06T20:32:18;25.20;51.00
40868;DHT22;26586;50.708;22.412;2022-07-06T20:34:45;25.20;50.90
40868;DHT22;26586;50.708;22.412;2022-07-06T20:37:11;25.20;51.80
40868;DHT22;26586;50.708;22.412;2022-07-06T20:39:37;25.20;50.90
40868;DHT22;26586;50.708;22.412;2022-07-06T20:42:03;25.10;51.00
40868;DHT22;26586;50.708;22.412;2022-07-06T20:44:30;25.10;51.20
40868;DHT22;26586;50.708;22.412;2022-07-06T20:46:56;25.10;50.40
40868;DHT22;26586;50.708;22.412;2022-07-06T20:49:22;25.10;50.80
40868;DHT22;26586;50.708;22.412;2022-07-06T20:51:48;25.10;50.50
40868;DHT22;26586;50.708;22.412;2022-07-06T20:54:14;25.10;50.30
40868;DHT22;26586;50.708;22.412;2022-07-06T20:56:40;25.00;50.90
40868;DHT22;26586;50.708;22.412;2022-07-06T20:59:07;25.00;51.00
40868;DHT22;26586;50.708;22.412;2022-07-06T21:01:33;25.00;50.70
40868;DHT22;26586;50.708;22.412;2022-07-06T21:04:00;25.00;51.40